sensor_id;sensor_type;location;lat;lon;timestamp;pressure;altitude;pressure_sealevel;temperature;humidity
51219;BME280;37291;46.752;23.620;2024-01-16T00:00:34;95770.0;;;;64.1
51219;BME280;37291;46.752;23.620;2024-01-16T00:01:35;95770.0;;;;64.1
51219;BME280;37291;46.752;23.620;2024-01-16T00:02:35;95780.0;;;;63.9
51219;BME280;37291;46.752;23.620;2024-01-16T00:03:35;95780.0;;;;64.0
51219;BME280;37291;46.752;23.620;2024-01-16T00:04:36;95780.0;;;;64.0
51219;BME280;37291;46.752;23.620;2024-01-16T00:05:35;95780.0;;;;64.2
51219;BME280;37291;46.752;23.620;2024-01-16T00:06:38;95780.0;;;;64.0
51219;BME280;37291;46.752;23.620;2024-01-16T00:07:37;95780.0;;;;64.2
51219;BME280;37291;46.752;23.620;2024-01-16T00:08:36;95780.0;;;;64.2
51219;BME280;37291;46.752;23.620;2024-01-16T00:09:36;95780.0;;;;64.2
51219;BME280;37291;46.752;23.620;2024-01-16T00:10:36;95770.0;;;;64.1
51219;BME280;37291;46.752;23.620;2024-01-16T00:11:40;95770.0;;;;64.0
51219;BME280;37291;46.752;23.620;2024-01-16T00:12:37;95780.0;;;;63.9
51219;BME280;37291;46.752;23.620;2024-01-16T00:13:37;95780.0;;;;63.8
51219;BME280;37291;46.752;23.620;2024-01-16T00:14:37;95790.0;;;;63.8
51219;BME280;37291;46.752;23.620;2024-01-16T00:15:37;95790.0;;;;63.8
51219;BME280;37291;46.752;23.620;2024-01-16T00:16:42;95790.0;;;;63.8
51219;BME280;37291;46.752;23.620;2024-01-16T00:17:37;95800.0;;;;63.8
51219;BME280;37291;46.752;23.620;2024-01-16T00:18:38;95800.0;;;;63.8
51219;BME280;37291;46.752;23.620;2024-01-16T00:19:38;95800.0;;;;63.7
51219;BME280;37291;46.752;23.620;2024-01-16T00:20:38;95800.0;;;;63.8
51219;BME280;37291;46.752;23.620;2024-01-16T00:21:39;95810.0;;;;63.8
51219;BME280;37291;46.752;23.620;2024-01-16T00:22:38;95820.0;;;;63.8
51219;BME280;37291;46.752;23.620;2024-01-16T00:23:39;95820.0;;;;63.8
51219;BME280;37291;46.752;23.620;2024-01-16T00:24:39;95820.0;;;;64.1
51219;BME280;37291;46.752;23.620;2024-01-16T00:25:39;95820.0;;;;64.2
51219;BME280;37291;46.752;23.620;2024-01-16T00:26:40;95820.0;;;;64.0
51219;BME280;37291;46.752;23.620;2024-01-16T00:27:39;95820.0;;;;64.0
51219;BME280;37291;46.752;23.620;2024-01-16T00:28:40;95820.0;;;;64.0
51219;BME280;37291;46.752;23.620;2024-01-16T00:29:40;95820.0;;;;63.9
51219;BME280;37291;46.752;23.620;2024-01-16T00:30:40;95820.0;;;;63.9
51219;BME280;37291;46.752;23.620;2024-01-16T00:31:41;95820.0;;;;63.9
51219;BME280;37291;46.752;23.620;2024-01-16T00:32:40;95830.0;;;;63.9
51219;BME280;37291;46.752;23.620;2024-01-16T00:33:41;95830.0;;;;64.0
51219;BME280;37291;46.752;23.620;2024-01-16T00:34:41;95850.0;;;;64.1
51219;BME280;37291;46.752;23.620;2024-01-16T00:35:41;95850.0;;;;64.1
51219;BME280;37291;46.752;23.620;2024-01-16T00:36:42;95850.0;;;;64.6
51219;BME280;37291;46.752;23.620;2024-01-16T00:37:41;95850.0;;;;64.6
51219;BME280;37291;46.752;23.620;2024-01-16T00:38:41;95840.0;;;;64.6
51219;BME280;37291;46.752;23.620;2024-01-16T00:39:42;95840.0;;;;64.5
51219;BME280;37291;46.752;23.620;2024-01-16T00:40:42;95850.0;;;;64.5
51219;BME280;37291;46.752;23.620;2024-01-16T00:41:42;95850.0;;;;64.4
51219;BME280;37291;46.752;23.620;2024-01-16T00:42:42;95850.0;;;;64.5
51219;BME280;37291;46.752;23.620;2024-01-16T00:43:43;95860.0;;;;64.5
51219;BME280;37291;46.752;23.620;2024-01-16T00:44:43;95860.0;;;;65.1
51219;BME280;37291;46.752;23.620;2024-01-16T00:45:43;95860.0;;;;65.1
51219;BME280;37291;46.752;23.620;2024-01-16T00:46:43;95850.0;;;;65.4
51219;BME280;37291;46.752;23.620;2024-01-16T00:47:43;95860.0;;;;65.4
51219;BME280;37291;46.752;23.620;2024-01-16T00:48:43;95860.0;;;;65.4
51219;BME280;37291;46.752;23.620;2024-01-16T00:49:44;95860.0;;;;65.6
51219;BME280;37291;46.752;23.620;2024-01-16T00:50:44;95860.0;;;;65.4
51219;BME280;37291;46.752;23.620;2024-01-16T00:51:44;95860.0;;;;65.4
51219;BME280;37291;46.752;23.620;2024-01-16T00:52:45;95870.0;;;;65.7
51219;BME280;37291;46.752;23.620;2024-01-16T00:53:45;95870.0;;;;65.8
51219;BME280;37291;46.752;23.620;2024-01-16T00:54:45;95870.0;;;;65.8
51219;BME280;37291;46.752;23.620;2024-01-16T00:55:46;95860.0;;;;65.4
51219;BME280;37291;46.752;23.620;2024-01-16T00:56:45;95870.0;;;;65.3
51219;BME280;37291;46.752;23.620;2024-01-16T00:57:45;95860.0;;;;65.3
51219;BME280;37291;46.752;23.620;2024-01-16T00:58:45;95860.0;;;;65.8
51219;BME280;37291;46.752;23.620;2024-01-16T00:59:46;95870.0;;;;66.2
51219;BME280;37291;46.752;23.620;2024-01-16T01:00:46;95880.0;;;;66.6
51219;BME280;37291;46.752;23.620;2024-01-16T01:01:46;95860.0;;;;66.3
51219;BME280;37291;46.752;23.620;2024-01-16T01:02:46;95850.0;;;;66.1
51219;BME280;37291;46.752;23.620;2024-01-16T01:03:46;95850.0;;;;66.0
51219;BME280;37291;46.752;23.620;2024-01-16T01:04:47;95850.0;;;;66.0
51219;BME280;37291;46.752;23.620;2024-01-16T01:05:47;95850.0;;;;66.2
51219;BME280;37291;46.752;23.620;2024-01-16T01:06:47;95860.0;;;;66.8
51219;BME280;37291;46.752;23.620;2024-01-16T01:07:47;95860.0;;;;66.9
51219;BME280;37291;46.752;23.620;2024-01-16T01:08:47;95860.0;;;;66.7
51219;BME280;37291;46.752;23.620;2024-01-16T01:09:47;95860.0;;;;66.5
51219;BME280;37291;46.752;23.620;2024-01-16T01:10:48;95860.0;;;;66.2
51219;BME280;37291;46.752;23.620;2024-01-16T01:11:48;95870.0;;;;66.2
51219;BME280;37291;46.752;23.620;2024-01-16T01:12:48;95880.0;;;;66.5
51219;BME280;37291;46.752;23.620;2024-01-16T01:13:48;95880.0;;;;66.3
51219;BME280;37291;46.752;23.620;2024-01-16T01:14:48;95890.0;;;;66.2
51219;BME280;37291;46.752;23.620;2024-01-16T01:15:49;95890.0;;;;66.0
51219;BME280;37291;46.752;23.620;2024-01-16T01:16:49;95890.0;;;;65.9
51219;BME280;37291;46.752;23.620;2024-01-16T01:17:49;95890.0;;;;65.9
51219;BME280;37291;46.752;23.620;2024-01-16T01:18:49;95880.0;;;;66.0
51219;BME280;37291;46.752;23.620;2024-01-16T01:19:49;95890.0;;;;65.9
51219;BME280;37291;46.752;23.620;2024-01-16T01:20:50;95890.0;;;;65.9
51219;BME280;37291;46.752;23.620;2024-01-16T01:21:50;95890.0;;;;65.9
51219;BME280;37291;46.752;23.620;2024-01-16T01:22:50;95900.0;;;;65.9
51219;BME280;37291;46.752;23.620;2024-01-16T01:23:50;95910.0;;;;65.8
51219;BME280;37291;46.752;23.620;2024-01-16T01:24:50;95910.0;;;;66.0
51219;BME280;37291;46.752;23.620;2024-01-16T01:25:51;95910.0;;;;65.9
51219;BME280;37291;46.752;23.620;2024-01-16T01:26:51;95910.0;;;;65.8
51219;BME280;37291;46.752;23.620;2024-01-16T01:27:51;95910.0;;;;65.9
51219;BME280;37291;46.752;23.620;2024-01-16T01:28:51;95910.0;;;;65.9
51219;BME280;37291;46.752;23.620;2024-01-16T01:29:51;95910.0;;;;65.9
51219;BME280;37291;46.752;23.620;2024-01-16T01:30:52;95910.0;;;;65.8
51219;BME280;37291;46.752;23.620;2024-01-16T01:31:52;95910.0;;;;65.8
51219;BME280;37291;46.752;23.620;2024-01-16T01:32:52;95920.0;;;;65.8
51219;BME280;37291;46.752;23.620;2024-01-16T01:33:52;95930.0;;;;65.7
51219;BME280;37291;46.752;23.620;2024-01-16T01:34:53;95930.0;;;;65.7
51219;BME280;37291;46.752;23.620;2024-01-16T01:35:53;95930.0;;;;65.7
51219;BME280;37291;46.752;23.620;2024-01-16T01:36:54;95940.0;;;;65.7
51219;BME280;37291;46.752;23.620;2024-01-16T01:37:53;95940.0;;;;65.8
51219;BME280;37291;46.752;23.620;2024-01-16T01:38:53;95940.0;;;;65.8
51219;BME280;37291;46.752;23.620;2024-01-16T01:39:53;95940.0;;;;65.9
51219;BME280;37291;46.752;23.620;2024-01-16T01:40:54;95930.0;;;;66.0
51219;BME280;37291;46.752;23.620;2024-01-16T01:41:54;95930.0;;;;66.1
51219;BME280;37291;46.752;23.620;2024-01-16T01:42:54;95920.0;;;;66.2
51219;BME280;37291;46.752;23.620;2024-01-16T01:43:54;95920.0;;;;66.2
51219;BME280;37291;46.752;23.620;2024-01-16T01:44:54;95920.0;;;;66.2
51219;BME280;37291;46.752;23.620;2024-01-16T01:46:09;95920.0;;;;66.2
51219;BME280;37291;46.752;23.620;2024-01-16T01:46:55;95910.0;;;;66.2
51219;BME280;37291;46.752;23.620;2024-01-16T01:47:55;95910.0;;;;66.3
51219;BME280;37291;46.752;23.620;2024-01-16T01:48:55;95910.0;;;;66.3
51219;BME280;37291;46.752;23.620;2024-01-16T01:49:55;95910.0;;;;66.4
51219;BME280;37291;46.752;23.620;2024-01-16T01:50:56;95910.0;;;;66.4
51219;BME280;37291;46.752;23.620;2024-01-16T01:51:56;95910.0;;;;66.5
51219;BME280;37291;46.752;23.620;2024-01-16T01:52:56;95910.0;;;;66.6
51219;BME280;37291;46.752;23.620;2024-01-16T01:53:56;95910.0;;;;66.5
51219;BME280;37291;46.752;23.620;2024-01-16T01:54:56;95920.0;;;;66.5
51219;BME280;37291;46.752;23.620;2024-01-16T01:55:57;95920.0;;;;66.4
51219;BME280;37291;46.752;23.620;2024-01-16T01:56:56;95920.0;;;;66.5
51219;BME280;37291;46.752;23.620;2024-01-16T01:57:57;95920.0;;;;66.5
51219;BME280;37291;46.752;23.620;2024-01-16T01:58:57;95920.0;;;;66.5
51219;BME280;37291;46.752;23.620;2024-01-16T01:59:57;95920.0;;;;66.5
51219;BME280;37291;46.752;23.620;2024-01-16T02:00:58;95920.0;;;;66.5
51219;BME280;37291;46.752;23.620;2024-01-16T02:01:57;95920.0;;;;66.5
51219;BME280;37291;46.752;23.620;2024-01-16T02:02:58;95930.0;;;;66.4
51219;BME280;37291;46.752;23.620;2024-01-16T02:04:00;95920.0;;;;66.4
51219;BME280;37291;46.752;23.620;2024-01-16T02:05:26;95920.0;;;;66.5
51219;BME280;37291;46.752;23.620;2024-01-16T02:06:45;95920.0;;;;66.6
51219;BME280;37291;46.752;23.620;2024-01-16T02:07:35;95920.0;;;;66.6
51219;BME280;37291;46.752;23.620;2024-01-16T02:09:33;95920.0;;;;66.6
51219;BME280;37291;46.752;23.620;2024-01-16T02:13:48;95930.0;;;;66.7
51219;BME280;37291;46.752;23.620;2024-01-16T02:22:47;95940.0;;;;66.5
51219;BME280;37291;46.752;23.620;2024-01-16T02:27:57;95950.0;;;;66.1
51219;BME280;37291;46.752;23.620;2024-01-16T02:41:09;95940.0;;;;66.3
51219;BME280;37291;46.752;23.620;2024-01-16T02:41:47;95940.0;;;;66.2
51219;BME280;37291;46.752;23.620;2024-01-16T02:42:47;95950.0;;;;66.1
51219;BME280;37291;46.752;23.620;2024-01-16T02:43:47;95950.0;;;;66.2
51219;BME280;37291;46.752;23.620;2024-01-16T02:44:47;95950.0;;;;66.2
51219;BME280;37291;46.752;23.620;2024-01-16T02:45:48;95950.0;;;;66.3
51219;BME280;37291;46.752;23.620;2024-01-16T02:46:48;95950.0;;;;66.4
51219;BME280;37291;46.752;23.620;2024-01-16T02:47:48;95950.0;;;;66.4
51219;BME280;37291;46.752;23.620;2024-01-16T02:48:48;95960.0;;;;66.3
51219;BME280;37291;46.752;23.620;2024-01-16T02:49:48;95960.0;;;;66.3
51219;BME280;37291;46.752;23.620;2024-01-16T02:50:49;95960.0;;;;66.2
51219;BME280;37291;46.752;23.620;2024-01-16T02:51:49;95960.0;;;;66.2
51219;BME280;37291;46.752;23.620;2024-01-16T02:52:49;95960.0;;;;66.2
51219;BME280;37291;46.752;23.620;2024-01-16T02:53:49;95970.0;;;;66.3
51219;BME280;37291;46.752;23.620;2024-01-16T02:54:50;95970.0;;;;66.2
51219;BME280;37291;46.752;23.620;2024-01-16T02:55:50;95980.0;;;;66.2
51219;BME280;37291;46.752;23.620;2024-01-16T02:56:50;95980.0;;;;66.4
51219;BME280;37291;46.752;23.620;2024-01-16T02:57:50;95990.0;;;;66.6
51219;BME280;37291;46.752;23.620;2024-01-16T02:58:50;95990.0;;;;66.7
51219;BME280;37291;46.752;23.620;2024-01-16T02:59:50;95990.0;;;;66.7
51219;BME280;37291;46.752;23.620;2024-01-16T03:00:53;95990.0;;;;66.7
51219;BME280;37291;46.752;23.620;2024-01-16T03:01:52;95990.0;;;;66.7
51219;BME280;37291;46.752;23.620;2024-01-16T03:02:52;96000.0;;;;66.7
51219;BME280;37291;46.752;23.620;2024-01-16T03:03:52;96000.0;;;;66.7
51219;BME280;37291;46.752;23.620;2024-01-16T03:04:51;96000.0;;;;66.8
51219;BME280;37291;46.752;23.620;2024-01-16T03:05:52;96000.0;;;;66.9
51219;BME280;37291;46.752;23.620;2024-01-16T03:06:52;96000.0;;;;66.9
51219;BME280;37291;46.752;23.620;2024-01-16T03:07:52;96000.0;;;;67.1
51219;BME280;37291;46.752;23.620;2024-01-16T03:08:52;96000.0;;;;67.2
51219;BME280;37291;46.752;23.620;2024-01-16T03:09:52;96010.0;;;;67.2
51219;BME280;37291;46.752;23.620;2024-01-16T03:10:53;96010.0;;;;67.2
51219;BME280;37291;46.752;23.620;2024-01-16T03:11:52;96010.0;;;;67.2
51219;BME280;37291;46.752;23.620;2024-01-16T03:12:53;96010.0;;;;67.2
51219;BME280;37291;46.752;23.620;2024-01-16T03:13:53;96010.0;;;;67.2
51219;BME280;37291;46.752;23.620;2024-01-16T03:14:53;96000.0;;;;67.3
51219;BME280;37291;46.752;23.620;2024-01-16T03:15:54;96010.0;;;;67.2
51219;BME280;37291;46.752;23.620;2024-01-16T03:16:54;96010.0;;;;67.1
51219;BME280;37291;46.752;23.620;2024-01-16T03:17:54;96010.0;;;;67.0
51219;BME280;37291;46.752;23.620;2024-01-16T03:18:54;96010.0;;;;67.1
51219;BME280;37291;46.752;23.620;2024-01-16T03:19:54;96010.0;;;;67.2
51219;BME280;37291;46.752;23.620;2024-01-16T03:20:55;96010.0;;;;67.2
51219;BME280;37291;46.752;23.620;2024-01-16T03:21:54;96010.0;;;;67.1
51219;BME280;37291;46.752;23.620;2024-01-16T03:22:55;96000.0;;;;67.1
51219;BME280;37291;46.752;23.620;2024-01-16T03:23:55;96010.0;;;;67.2
51219;BME280;37291;46.752;23.620;2024-01-16T03:24:55;96010.0;;;;67.2
51219;BME280;37291;46.752;23.620;2024-01-16T03:25:56;96010.0;;;;67.3
51219;BME280;37291;46.752;23.620;2024-01-16T03:26:56;96000.0;;;;67.7
51219;BME280;37291;46.752;23.620;2024-01-16T03:27:56;96000.0;;;;67.6
51219;BME280;37291;46.752;23.620;2024-01-16T03:28:56;96000.0;;;;67.7
51219;BME280;37291;46.752;23.620;2024-01-16T03:29:56;96010.0;;;;67.5
51219;BME280;37291;46.752;23.620;2024-01-16T03:30:56;96010.0;;;;67.4
51219;BME280;37291;46.752;23.620;2024-01-16T03:31:56;96010.0;;;;67.3
51219;BME280;37291;46.752;23.620;2024-01-16T03:32:57;96000.0;;;;67.2
51219;BME280;37291;46.752;23.620;2024-01-16T03:33:57;96000.0;;;;67.1
51219;BME280;37291;46.752;23.620;2024-01-16T03:34:57;95990.0;;;;67.2
51219;BME280;37291;46.752;23.620;2024-01-16T03:35:57;95980.0;;;;67.2
51219;BME280;37291;46.752;23.620;2024-01-16T03:36:57;95980.0;;;;67.1
51219;BME280;37291;46.752;23.620;2024-01-16T03:37:58;95990.0;;;;66.7
51219;BME280;37291;46.752;23.620;2024-01-16T03:38:58;96000.0;;;;66.4
51219;BME280;37291;46.752;23.620;2024-01-16T03:39:58;96000.0;;;;66.3
51219;BME280;37291;46.752;23.620;2024-01-16T03:40:59;96010.0;;;;66.2
51219;BME280;37291;46.752;23.620;2024-01-16T03:41:58;96010.0;;;;66.0
51219;BME280;37291;46.752;23.620;2024-01-16T03:42:59;96020.0;;;;65.9
51219;BME280;37291;46.752;23.620;2024-01-16T03:44:00;96010.0;;;;65.8
51219;BME280;37291;46.752;23.620;2024-01-16T03:45:00;96020.0;;;;65.8
51219;BME280;37291;46.752;23.620;2024-01-16T03:46:00;96010.0;;;;65.7
51219;BME280;37291;46.752;23.620;2024-01-16T03:47:00;96010.0;;;;65.5
51219;BME280;37291;46.752;23.620;2024-01-16T03:48:01;96010.0;;;;65.4
51219;BME280;37291;46.752;23.620;2024-01-16T03:49:00;96010.0;;;;65.3
51219;BME280;37291;46.752;23.620;2024-01-16T03:50:00;96010.0;;;;65.2
51219;BME280;37291;46.752;23.620;2024-01-16T03:51:01;96010.0;;;;65.1
51219;BME280;37291;46.752;23.620;2024-01-16T03:52:01;96010.0;;;;65.0
51219;BME280;37291;46.752;23.620;2024-01-16T03:53:01;96010.0;;;;64.9
51219;BME280;37291;46.752;23.620;2024-01-16T03:54:01;96010.0;;;;64.8
51219;BME280;37291;46.752;23.620;2024-01-16T03:55:01;96000.0;;;;64.7
51219;BME280;37291;46.752;23.620;2024-01-16T03:56:02;96000.0;;;;64.6
51219;BME280;37291;46.752;23.620;2024-01-16T03:57:01;96000.0;;;;64.5
51219;BME280;37291;46.752;23.620;2024-01-16T03:58:02;96000.0;;;;64.4
51219;BME280;37291;46.752;23.620;2024-01-16T03:59:02;96000.0;;;;64.3
51219;BME280;37291;46.752;23.620;2024-01-16T04:00:02;96000.0;;;;64.2
51219;BME280;37291;46.752;23.620;2024-01-16T04:01:03;96010.0;;;;64.1
51219;BME280;37291;46.752;23.620;2024-01-16T04:02:03;96010.0;;;;64.0
51219;BME280;37291;46.752;23.620;2024-01-16T04:03:03;96010.0;;;;63.9
51219;BME280;37291;46.752;23.620;2024-01-16T04:04:03;96010.0;;;;63.8
51219;BME280;37291;46.752;23.620;2024-01-16T04:05:03;96020.0;;;;63.7
51219;BME280;37291;46.752;23.620;2024-01-16T04:06:04;96020.0;;;;63.7
51219;BME280;37291;46.752;23.620;2024-01-16T04:07:03;96030.0;;;;63.7
51219;BME280;37291;46.752;23.620;2024-01-16T04:08:04;96030.0;;;;63.7
51219;BME280;37291;46.752;23.620;2024-01-16T04:09:06;96040.0;;;;63.6
51219;BME280;37291;46.752;23.620;2024-01-16T04:10:05;96040.0;;;;63.6
51219;BME280;37291;46.752;23.620;2024-01-16T04:11:05;96040.0;;;;63.7
51219;BME280;37291;46.752;23.620;2024-01-16T04:12:05;96040.0;;;;63.7
51219;BME280;37291;46.752;23.620;2024-01-16T04:13:04;96050.0;;;;63.7
51219;BME280;37291;46.752;23.620;2024-01-16T04:14:05;96050.0;;;;63.8
51219;BME280;37291;46.752;23.620;2024-01-16T04:15:05;96050.0;;;;63.8
51219;BME280;37291;46.752;23.620;2024-01-16T04:16:06;96060.0;;;;63.8
51219;BME280;37291;46.752;23.620;2024-01-16T04:17:05;96060.0;;;;63.8
51219;BME280;37291;46.752;23.620;2024-01-16T04:18:06;96060.0;;;;63.7
51219;BME280;37291;46.752;23.620;2024-01-16T04:19:06;96060.0;;;;63.6
51219;BME280;37291;46.752;23.620;2024-01-16T04:20:06;96060.0;;;;63.6
51219;BME280;37291;46.752;23.620;2024-01-16T04:21:06;96070.0;;;;63.7
51219;BME280;37291;46.752;23.620;2024-01-16T04:22:08;96070.0;;;;63.6
51219;BME280;37291;46.752;23.620;2024-01-16T04:23:07;96060.0;;;;63.5
51219;BME280;37291;46.752;23.620;2024-01-16T04:24:07;96060.0;;;;63.4
51219;BME280;37291;46.752;23.620;2024-01-16T04:25:07;96060.0;;;;63.4
51219;BME280;37291;46.752;23.620;2024-01-16T04:26:07;96070.0;;;;63.4
51219;BME280;37291;46.752;23.620;2024-01-16T04:27:07;96070.0;;;;63.5
51219;BME280;37291;46.752;23.620;2024-01-16T04:28:07;96070.0;;;;63.5
51219;BME280;37291;46.752;23.620;2024-01-16T04:29:08;96070.0;;;;63.6
51219;BME280;37291;46.752;23.620;2024-01-16T04:30:08;96070.0;;;;63.6
51219;BME280;37291;46.752;23.620;2024-01-16T04:31:08;96070.0;;;;63.7
51219;BME280;37291;46.752;23.620;2024-01-16T04:32:08;96080.0;;;;63.7
51219;BME280;37291;46.752;23.620;2024-01-16T04:33:08;96070.0;;;;63.7
51219;BME280;37291;46.752;23.620;2024-01-16T04:34:09;96080.0;;;;63.7
51219;BME280;37291;46.752;23.620;2024-01-16T04:35:09;96070.0;;;;63.6
51219;BME280;37291;46.752;23.620;2024-01-16T04:36:09;96080.0;;;;63.6
51219;BME280;37291;46.752;23.620;2024-01-16T04:37:09;96080.0;;;;63.5
51219;BME280;37291;46.752;23.620;2024-01-16T04:38:09;96080.0;;;;63.4
51219;BME280;37291;46.752;23.620;2024-01-16T04:39:09;96080.0;;;;63.4
51219;BME280;37291;46.752;23.620;2024-01-16T04:40:10;96080.0;;;;63.3
51219;BME280;37291;46.752;23.620;2024-01-16T04:41:11;96080.0;;;;63.3
51219;BME280;37291;46.752;23.620;2024-01-16T04:42:10;96090.0;;;;63.2
51219;BME280;37291;46.752;23.620;2024-01-16T04:43:10;96090.0;;;;63.1
51219;BME280;37291;46.752;23.620;2024-01-16T04:44:10;96090.0;;;;63.1
51219;BME280;37291;46.752;23.620;2024-01-16T04:45:11;96090.0;;;;63.0
51219;BME280;37291;46.752;23.620;2024-01-16T04:46:11;96100.0;;;;63.1
51219;BME280;37291;46.752;23.620;2024-01-16T04:47:11;96100.0;;;;63.0
51219;BME280;37291;46.752;23.620;2024-01-16T04:48:11;96100.0;;;;63.0
51219;BME280;37291;46.752;23.620;2024-01-16T04:49:11;96100.0;;;;62.9
51219;BME280;37291;46.752;23.620;2024-01-16T04:50:12;96100.0;;;;62.9
51219;BME280;37291;46.752;23.620;2024-01-16T04:51:12;96100.0;;;;62.9
51219;BME280;37291;46.752;23.620;2024-01-16T04:52:12;96100.0;;;;62.8
51219;BME280;37291;46.752;23.620;2024-01-16T04:53:12;96100.0;;;;62.8
51219;BME280;37291;46.752;23.620;2024-01-16T04:54:12;96110.0;;;;62.7
51219;BME280;37291;46.752;23.620;2024-01-16T04:55:13;96110.0;;;;62.7
51219;BME280;37291;46.752;23.620;2024-01-16T04:56:13;96110.0;;;;62.7
51219;BME280;37291;46.752;23.620;2024-01-16T04:57:13;96120.0;;;;62.7
51219;BME280;37291;46.752;23.620;2024-01-16T04:58:14;96120.0;;;;62.6
51219;BME280;37291;46.752;23.620;2024-01-16T04:59:13;96120.0;;;;62.3
51219;BME280;37291;46.752;23.620;2024-01-16T05:00:15;96120.0;;;;62.3
51219;BME280;37291;46.752;23.620;2024-01-16T05:01:15;96120.0;;;;62.2
51219;BME280;37291;46.752;23.620;2024-01-16T05:02:14;96120.0;;;;62.4
51219;BME280;37291;46.752;23.620;2024-01-16T05:03:14;96130.0;;;;62.3
51219;BME280;37291;46.752;23.620;2024-01-16T05:04:14;96120.0;;;;62.2
51219;BME280;37291;46.752;23.620;2024-01-16T05:05:15;96120.0;;;;62.1
51219;BME280;37291;46.752;23.620;2024-01-16T05:06:15;96120.0;;;;62.1
51219;BME280;37291;46.752;23.620;2024-01-16T05:07:15;96120.0;;;;61.9
51219;BME280;37291;46.752;23.620;2024-01-16T05:08:15;96130.0;;;;61.6
51219;BME280;37291;46.752;23.620;2024-01-16T05:09:15;96130.0;;;;61.5
51219;BME280;37291;46.752;23.620;2024-01-16T05:10:16;96130.0;;;;61.4
51219;BME280;37291;46.752;23.620;2024-01-16T05:11:16;96140.0;;;;61.3
51219;BME280;37291;46.752;23.620;2024-01-16T05:12:16;96140.0;;;;61.3
51219;BME280;37291;46.752;23.620;2024-01-16T05:13:16;96140.0;;;;61.3
51219;BME280;37291;46.752;23.620;2024-01-16T05:14:16;96140.0;;;;61.2
51219;BME280;37291;46.752;23.620;2024-01-16T05:15:17;96140.0;;;;61.2
51219;BME280;37291;46.752;23.620;2024-01-16T05:16:17;96150.0;;;;61.3
51219;BME280;37291;46.752;23.620;2024-01-16T05:17:17;96150.0;;;;61.3
51219;BME280;37291;46.752;23.620;2024-01-16T05:18:17;96160.0;;;;61.1
51219;BME280;37291;46.752;23.620;2024-01-16T05:19:18;96160.0;;;;60.9
51219;BME280;37291;46.752;23.620;2024-01-16T05:20:18;96160.0;;;;60.9
51219;BME280;37291;46.752;23.620;2024-01-16T05:21:18;96160.0;;;;61.1
51219;BME280;37291;46.752;23.620;2024-01-16T05:22:18;96160.0;;;;61.0
51219;BME280;37291;46.752;23.620;2024-01-16T05:23:18;96170.0;;;;60.9
51219;BME280;37291;46.752;23.620;2024-01-16T05:24:18;96170.0;;;;60.8
51219;BME280;37291;46.752;23.620;2024-01-16T05:25:19;96170.0;;;;60.8
51219;BME280;37291;46.752;23.620;2024-01-16T05:26:19;96170.0;;;;60.9
51219;BME280;37291;46.752;23.620;2024-01-16T05:27:19;96170.0;;;;60.9
51219;BME280;37291;46.752;23.620;2024-01-16T05:28:19;96170.0;;;;60.7
51219;BME280;37291;46.752;23.620;2024-01-16T05:29:19;96170.0;;;;60.6
51219;BME280;37291;46.752;23.620;2024-01-16T05:30:20;96170.0;;;;60.6
51219;BME280;37291;46.752;23.620;2024-01-16T05:31:20;96170.0;;;;60.6
51219;BME280;37291;46.752;23.620;2024-01-16T05:32:20;96170.0;;;;60.6
51219;BME280;37291;46.752;23.620;2024-01-16T05:33:20;96180.0;;;;60.5
51219;BME280;37291;46.752;23.620;2024-01-16T05:34:20;96180.0;;;;60.4
51219;BME280;37291;46.752;23.620;2024-01-16T05:35:21;96180.0;;;;60.4
51219;BME280;37291;46.752;23.620;2024-01-16T05:36:21;96180.0;;;;60.3
51219;BME280;37291;46.752;23.620;2024-01-16T05:37:21;96180.0;;;;60.4
51219;BME280;37291;46.752;23.620;2024-01-16T05:38:21;96180.0;;;;60.3
51219;BME280;37291;46.752;23.620;2024-01-16T05:39:21;96180.0;;;;60.3
51219;BME280;37291;46.752;23.620;2024-01-16T05:40:22;96180.0;;;;60.3
51219;BME280;37291;46.752;23.620;2024-01-16T05:41:22;96190.0;;;;60.4
51219;BME280;37291;46.752;23.620;2024-01-16T05:42:22;96190.0;;;;60.4
51219;BME280;37291;46.752;23.620;2024-01-16T05:43:22;96190.0;;;;60.4
51219;BME280;37291;46.752;23.620;2024-01-16T05:44:22;96200.0;;;;60.3
51219;BME280;37291;46.752;23.620;2024-01-16T05:45:23;96200.0;;;;60.3
51219;BME280;37291;46.752;23.620;2024-01-16T05:46:23;96200.0;;;;60.4
51219;BME280;37291;46.752;23.620;2024-01-16T05:47:23;96200.0;;;;60.7
51219;BME280;37291;46.752;23.620;2024-01-16T05:48:23;96200.0;;;;60.8
51219;BME280;37291;46.752;23.620;2024-01-16T05:49:23;96200.0;;;;60.9
51219;BME280;37291;46.752;23.620;2024-01-16T05:50:24;96200.0;;;;60.9
51219;BME280;37291;46.752;23.620;2024-01-16T05:51:24;96200.0;;;;60.7
51219;BME280;37291;46.752;23.620;2024-01-16T05:52:25;96200.0;;;;60.9
51219;BME280;37291;46.752;23.620;2024-01-16T05:53:24;96210.0;;;;60.8
51219;BME280;37291;46.752;23.620;2024-01-16T05:54:24;96210.0;;;;60.7
51219;BME280;37291;46.752;23.620;2024-01-16T05:55:25;96220.0;;;;60.5
51219;BME280;37291;46.752;23.620;2024-01-16T05:56:25;96220.0;;;;60.4
51219;BME280;37291;46.752;23.620;2024-01-16T05:57:25;96220.0;;;;60.5
51219;BME280;37291;46.752;23.620;2024-01-16T05:58:25;96220.0;;;;60.6
51219;BME280;37291;46.752;23.620;2024-01-16T05:59:25;96230.0;;;;60.5
51219;BME280;37291;46.752;23.620;2024-01-16T06:00:26;96230.0;;;;60.7
51219;BME280;37291;46.752;23.620;2024-01-16T06:01:26;96220.0;;;;60.7
51219;BME280;37291;46.752;23.620;2024-01-16T06:02:26;96220.0;;;;60.8
51219;BME280;37291;46.752;23.620;2024-01-16T06:03:26;96220.0;;;;60.9
51219;BME280;37291;46.752;23.620;2024-01-16T06:04:26;96230.0;;;;61.0
51219;BME280;37291;46.752;23.620;2024-01-16T06:05:27;96230.0;;;;61.0
51219;BME280;37291;46.752;23.620;2024-01-16T06:06:27;96230.0;;;;61.4
51219;BME280;37291;46.752;23.620;2024-01-16T06:07:27;96230.0;;;;61.3
51219;BME280;37291;46.752;23.620;2024-01-16T06:08:27;96230.0;;;;61.0
51219;BME280;37291;46.752;23.620;2024-01-16T06:09:27;96230.0;;;;60.6
51219;BME280;37291;46.752;23.620;2024-01-16T06:10:28;96230.0;;;;60.5
51219;BME280;37291;46.752;23.620;2024-01-16T06:11:30;96230.0;;;;60.8
51219;BME280;37291;46.752;23.620;2024-01-16T06:12:28;96230.0;;;;60.9
51219;BME280;37291;46.752;23.620;2024-01-16T06:13:28;96230.0;;;;60.9
51219;BME280;37291;46.752;23.620;2024-01-16T06:14:28;96230.0;;;;60.8
51219;BME280;37291;46.752;23.620;2024-01-16T06:15:29;96230.0;;;;60.7